createdAt,value
2022-08-05T00:01:27.718Z,26.80
2022-08-05T00:03:57.148Z,26.80
2022-08-05T00:06:30.668Z,26.80
2022-08-05T00:09:00.802Z,26.80
2022-08-05T00:11:34.591Z,26.80
2022-08-05T00:14:12.921Z,26.80
2022-08-05T00:16:53.030Z,26.70
2022-08-05T00:19:22.510Z,26.80
2022-08-05T00:21:50.434Z,26.80
2022-08-05T00:24:19.264Z,26.70
2022-08-05T00:26:53.176Z,26.70
2022-08-05T00:29:22.554Z,26.70
2022-08-05T00:32:09.362Z,26.70
2022-08-05T00:34:53.257Z,26.70
2022-08-05T00:37:24.815Z,26.70
2022-08-05T00:39:57.480Z,26.70
2022-08-05T00:42:38.908Z,26.60
2022-08-05T00:45:08.843Z,26.70
2022-08-05T00:47:57.043Z,26.60
2022-08-05T00:50:25.788Z,26.60
2022-08-05T00:52:55.070Z,26.60
2022-08-05T00:55:23.001Z,26.70
2022-08-05T00:58:02.243Z,26.60
2022-08-05T01:00:32.234Z,26.60
2022-08-05T01:03:00.960Z,26.60
2022-08-05T01:05:28.477Z,26.60
2022-08-05T01:08:40.620Z,26.60
2022-08-05T01:10:59.897Z,26.60
2022-08-05T01:14:00.054Z,26.60
2022-08-05T01:16:48.164Z,26.60
2022-08-05T01:20:02.341Z,26.60
2022-08-05T01:22:57.673Z,26.50
2022-08-05T01:25:54.106Z,26.60
2022-08-05T01:28:33.253Z,26.50
2022-08-05T01:31:27.269Z,26.60
2022-08-05T01:34:11.049Z,26.60
2022-08-05T01:36:46.865Z,26.50
2022-08-05T01:39:46.042Z,26.50
2022-08-05T01:42:05.736Z,26.50
2022-08-05T01:44:35.472Z,26.50
2022-08-05T01:47:05.109Z,26.50
2022-08-05T01:50:01.426Z,26.50
2022-08-05T01:52:23.652Z,26.50
2022-08-05T01:54:56.029Z,26.50
2022-08-05T01:58:09.488Z,26.50
2022-08-05T02:00:20.436Z,26.50
2022-08-05T02:03:03.522Z,26.50
2022-08-05T02:05:34.379Z,26.50
2022-08-05T02:08:04.546Z,26.50
2022-08-05T02:10:40.077Z,26.50
2022-08-05T02:13:16.898Z,26.50
2022-08-05T02:15:47.979Z,26.50
2022-08-05T02:18:34.477Z,26.50
2022-08-05T02:21:25.513Z,26.50
2022-08-05T02:23:56.862Z,26.40
2022-08-05T02:26:53.712Z,26.50
2022-08-05T02:29:58.158Z,26.40
2022-08-05T02:32:23.722Z,26.40
2022-08-05T02:34:54.997Z,26.40
2022-08-05T02:37:23.507Z,26.40
2022-08-05T02:39:53.542Z,26.40
2022-08-05T02:42:27.590Z,26.40
2022-08-05T02:45:00.688Z,26.40
2022-08-05T02:47:58.652Z,26.40
2022-08-05T02:50:19.147Z,26.40
2022-08-05T02:52:47.128Z,26.40
2022-08-05T02:55:14.740Z,26.40
2022-08-05T02:58:09.834Z,26.40
2022-08-05T03:00:35.324Z,26.40
2022-08-05T03:03:07.643Z,26.40
2022-08-05T03:06:53.762Z,26.40
2022-08-05T03:08:29.846Z,26.40
2022-08-05T03:11:53.779Z,26.40
2022-08-05T03:13:51.606Z,26.40
2022-08-05T03:16:30.101Z,26.40
2022-08-05T03:18:59.648Z,26.40
2022-08-05T03:21:28.864Z,26.40
2022-08-05T03:24:00.987Z,26.30
2022-08-05T03:26:32.075Z,26.40
2022-08-05T03:28:59.889Z,26.30
2022-08-05T03:31:56.509Z,26.30
2022-08-05T03:34:15.024Z,26.40
2022-08-05T03:36:42.203Z,26.40
2022-08-05T03:39:19.919Z,26.30
2022-08-05T03:41:56.120Z,26.40
2022-08-05T03:44:24.376Z,26.40
2022-08-05T03:46:52.007Z,26.40
2022-08-05T03:49:19.728Z,26.40
2022-08-05T03:52:36.837Z,26.40
2022-08-05T03:55:50.310Z,26.40
2022-08-05T03:57:46.235Z,26.30
2022-08-05T04:00:16.276Z,26.30
2022-08-05T04:02:57.915Z,26.40
2022-08-05T04:05:33.719Z,26.40
2022-08-05T04:08:14.574Z,26.40
2022-08-05T04:10:45.340Z,26.40
2022-08-05T04:13:12.883Z,26.40
2022-08-05T04:15:52.727Z,26.40
2022-08-05T04:18:28.860Z,26.40
2022-08-05T04:20:58.647Z,26.40
2022-08-05T04:24:04.836Z,26.50
2022-08-05T04:26:17.383Z,26.50
2022-08-05T04:28:50.958Z,26.50
2022-08-05T04:31:19.794Z,26.50
2022-08-05T04:34:17.538Z,26.50
2022-08-05T04:36:45.600Z,26.50
2022-08-05T04:39:20.363Z,26.50
2022-08-05T04:41:48.610Z,26.50
2022-08-05T04:44:29.283Z,26.60
2022-08-05T04:46:59.258Z,26.60
2022-08-05T04:49:38.883Z,26.60
2022-08-05T04:52:15.181Z,26.60
2022-08-05T04:54:42.575Z,26.60
2022-08-05T04:57:09.747Z,26.70
2022-08-05T04:59:38.902Z,26.70
2022-08-05T05:02:37.630Z,26.70
2022-08-05T05:05:02.187Z,26.70
2022-08-05T05:07:32.365Z,26.70
2022-08-05T05:10:02.311Z,26.70
2022-08-05T05:12:30.200Z,26.70
2022-08-05T05:14:57.360Z,26.60
2022-08-05T05:17:56.585Z,26.50
2022-08-05T05:20:13.325Z,26.30
2022-08-05T05:22:44.133Z,26.00
2022-08-05T05:25:16.543Z,25.80
2022-08-05T05:27:48.455Z,25.50
2022-08-05T05:30:29.881Z,25.10
2022-08-05T05:33:03.512Z,24.80
2022-08-05T05:35:43.222Z,24.40
2022-08-05T05:38:12.901Z,23.90
2022-08-05T05:40:46.635Z,23.60
2022-08-05T05:43:16.709Z,23.30
2022-08-05T05:45:55.384Z,22.90
2022-08-05T05:48:27.655Z,22.60
2022-08-05T05:50:55.422Z,22.30
2022-08-05T05:53:22.990Z,22.10
2022-08-05T05:56:00.477Z,21.90
2022-08-05T05:58:31.893Z,21.70
2022-08-05T06:01:12.426Z,21.60
2022-08-05T06:04:00.700Z,21.50
2022-08-05T06:06:31.155Z,21.30
2022-08-05T06:08:58.984Z,21.20
2022-08-05T06:11:29.090Z,21.10
2022-08-05T06:13:56.941Z,21.10
2022-08-05T06:16:28.884Z,21.10
2022-08-05T06:19:01.050Z,21.10
2022-08-05T06:21:35.986Z,21.10
2022-08-05T06:24:09.972Z,21.10
2022-08-05T06:26:52.325Z,21.10
2022-08-05T06:29:46.736Z,21.10
2022-08-05T06:32:26.217Z,21.10
2022-08-05T06:34:57.878Z,21.00
2022-08-05T06:37:56.301Z,21.00
2022-08-05T06:40:18.377Z,21.00
2022-08-05T06:42:51.579Z,20.90
2022-08-05T06:45:21.458Z,20.90
2022-08-05T06:48:36.593Z,20.90
2022-08-05T06:50:55.043Z,20.90
2022-08-05T06:53:27.690Z,20.90
2022-08-05T06:55:58.366Z,20.80
2022-08-05T06:58:35.397Z,20.90
2022-08-05T07:01:06.052Z,20.90
2022-08-05T07:03:34.670Z,20.90
2022-08-05T07:06:05.757Z,20.90
2022-08-05T07:08:47.552Z,20.90
2022-08-05T07:11:22.529Z,20.90
2022-08-05T07:14:20.211Z,20.90
2022-08-05T07:17:56.912Z,21.00
2022-08-05T07:22:30.162Z,21.10
2022-08-05T07:25:53.930Z,21.20
2022-08-05T07:27:57.993Z,21.20
2022-08-05T07:30:32.281Z,21.20
2022-08-05T07:33:01.279Z,21.30
2022-08-05T07:35:55.877Z,21.30
2022-08-05T07:38:32.850Z,21.40
2022-08-05T07:42:08.709Z,21.50
2022-08-05T07:43:57.909Z,21.60
2022-08-05T07:46:28.958Z,21.60
2022-08-05T07:49:01.942Z,21.70
2022-08-05T07:51:40.421Z,21.70
2022-08-05T07:54:09.762Z,21.80
2022-08-05T07:57:00.611Z,21.70
2022-08-05T07:59:39.058Z,21.80
2022-08-05T08:02:10.695Z,21.80
2022-08-05T08:04:46.050Z,21.80
2022-08-05T08:07:15.188Z,21.90
2022-08-05T08:09:43.665Z,21.90
2022-08-05T08:12:34.994Z,21.80
2022-08-05T08:15:02.639Z,21.90
2022-08-05T08:17:33.209Z,21.90
2022-08-05T08:20:21.790Z,21.90
2022-08-05T08:22:55.818Z,22.00
2022-08-05T08:25:26.502Z,22.00
2022-08-05T08:27:56.125Z,22.00
2022-08-05T08:30:33.935Z,22.00
2022-08-05T08:33:13.947Z,21.90
2022-08-05T08:35:52.911Z,22.00
2022-08-05T08:38:36.166Z,22.00
2022-08-05T08:41:08.812Z,21.90
2022-08-05T08:45:19.798Z,21.90
2022-08-05T08:46:29.330Z,21.80
2022-08-05T08:49:06.155Z,21.90
2022-08-05T08:52:03.337Z,21.80
2022-08-05T08:54:36.570Z,21.70
2022-08-05T08:57:05.537Z,21.70
2022-08-05T08:59:41.942Z,21.70
2022-08-05T09:02:16.708Z,21.60
2022-08-05T09:04:57.867Z,21.60
2022-08-05T09:07:39.375Z,21.60
2022-08-05T09:10:08.027Z,21.60
2022-08-05T09:12:38.853Z,21.60
2022-08-05T09:15:06.933Z,21.60
2022-08-05T09:17:41.417Z,21.60
2022-08-05T09:20:11.960Z,21.60
2022-08-05T09:23:18.980Z,21.60
2022-08-05T09:26:01.308Z,21.60
2022-08-05T09:28:34.028Z,21.60
2022-08-05T09:31:22.173Z,21.60
2022-08-05T09:33:56.364Z,21.60
2022-08-05T09:36:27.789Z,21.60
2022-08-05T09:39:16.558Z,21.60
2022-08-05T09:42:01.336Z,21.60
2022-08-05T09:44:42.125Z,21.60
2022-08-05T09:47:15.886Z,21.60
2022-08-05T09:50:00.681Z,21.60
2022-08-05T09:52:32.743Z,21.60
2022-08-05T09:55:55.086Z,21.60
2022-08-05T09:57:54.653Z,21.60
2022-08-05T10:00:26.453Z,21.60
2022-08-05T10:02:58.699Z,21.70
2022-08-05T10:05:28.281Z,21.70
2022-08-05T10:08:35.379Z,21.70
2022-08-05T10:10:54.347Z,21.70
2022-08-05T10:13:47.671Z,21.70
2022-08-05T10:16:41.797Z,21.70
2022-08-05T10:19:23.616Z,21.70
2022-08-05T10:22:15.658Z,21.70
2022-08-05T10:24:58.747Z,21.70
2022-08-05T10:28:13.080Z,21.70
2022-08-05T10:31:19.944Z,21.70
2022-08-05T10:33:03.609Z,21.70
2022-08-05T10:35:33.680Z,21.70
2022-08-05T10:38:01.883Z,21.70
2022-08-05T10:40:45.041Z,21.70
2022-08-05T10:43:50.473Z,21.70
2022-08-05T10:46:23.991Z,21.70
2022-08-05T10:49:01.457Z,21.80
2022-08-05T10:51:53.212Z,21.70
2022-08-05T10:54:57.046Z,21.80
2022-08-05T10:57:32.446Z,21.80
2022-08-05T11:00:22.866Z,21.80
2022-08-05T11:03:22.992Z,21.90
2022-08-05T11:06:16.135Z,21.90
2022-08-05T11:09:32.056Z,21.90
2022-08-05T11:12:54.378Z,21.90
2022-08-05T11:16:00.663Z,21.80
2022-08-05T11:18:34.175Z,21.90
2022-08-05T11:21:11.664Z,21.90
2022-08-05T11:24:04.527Z,21.90
2022-08-05T11:26:40.604Z,22.00
2022-08-05T11:29:30.481Z,22.00
2022-08-05T11:32:26.602Z,22.00
2022-08-05T11:34:55.187Z,21.90
2022-08-05T11:38:29.985Z,21.90
2022-08-05T11:41:03.654Z,21.90
2022-08-05T11:44:11.215Z,21.80
2022-08-05T11:47:10.537Z,21.90
2022-08-05T11:49:29.315Z,21.80
2022-08-05T11:52:02.117Z,21.80
2022-08-05T11:54:40.649Z,21.80
2022-08-05T11:57:24.910Z,21.70
2022-08-05T11:59:53.657Z,21.70
2022-08-05T12:02:30.298Z,21.70
2022-08-05T12:05:08.191Z,21.70
2022-08-05T12:08:09.100Z,21.70
2022-08-05T12:10:38.488Z,21.70
2022-08-05T12:13:47.356Z,21.60
2022-08-05T12:16:14.732Z,21.60
2022-08-05T12:18:49.305Z,21.60
2022-08-05T12:21:26.777Z,21.70
2022-08-05T12:24:09.869Z,21.60
2022-08-05T12:26:48.067Z,21.70
2022-08-05T12:29:23.062Z,21.70
2022-08-05T12:32:01.726Z,21.60
2022-08-05T12:34:32.714Z,21.60
2022-08-05T12:37:10.648Z,21.60
2022-08-05T12:39:39.864Z,21.60
2022-08-05T12:42:17.660Z,21.60
2022-08-05T12:44:45.253Z,21.70
2022-08-05T12:47:17.078Z,21.60
2022-08-05T12:50:03.065Z,21.60
2022-08-05T12:52:39.315Z,21.60
2022-08-05T12:55:26.937Z,21.60
2022-08-05T12:58:51.349Z,21.60
2022-08-05T13:02:00.553Z,21.70
2022-08-05T13:03:41.933Z,21.60
2022-08-05T13:06:17.982Z,21.60
2022-08-05T13:08:51.834Z,21.60
2022-08-05T13:11:25.342Z,21.60
2022-08-05T13:14:24.520Z,21.70
2022-08-05T13:16:56.558Z,21.60
2022-08-05T13:19:52.222Z,21.60
2022-08-05T13:22:27.722Z,21.60
2022-08-05T13:25:00.952Z,21.60
2022-08-05T13:27:37.938Z,21.60
2022-08-05T13:30:35.915Z,21.70
2022-08-05T13:32:56.593Z,21.70
2022-08-05T13:35:31.480Z,21.60
2022-08-05T13:38:20.472Z,21.60
2022-08-05T13:40:57.716Z,21.70
2022-08-05T13:43:24.921Z,21.60
2022-08-05T13:46:12.331Z,21.60
2022-08-05T13:48:57.550Z,21.60
2022-08-05T13:51:40.390Z,21.60
2022-08-05T13:54:11.740Z,21.60
2022-08-05T13:56:45.114Z,21.60
2022-08-05T13:59:24.483Z,21.60
2022-08-05T14:01:59.096Z,21.60
2022-08-05T14:04:54.880Z,21.60
2022-08-05T14:07:55.653Z,21.60
2022-08-05T14:10:28.650Z,21.60
2022-08-05T14:12:57.883Z,21.50
2022-08-05T14:16:07.366Z,21.50
2022-08-05T14:18:17.781Z,21.50
2022-08-05T14:20:49.171Z,21.50
2022-08-05T14:23:25.193Z,21.50
2022-08-05T14:25:58.146Z,21.50
2022-08-05T14:28:27.869Z,21.50
2022-08-05T14:30:57.198Z,21.50
2022-08-05T14:33:24.374Z,21.60
2022-08-05T14:35:54.542Z,21.50
2022-08-05T14:38:27.673Z,21.60
2022-08-05T14:41:01.760Z,21.60
2022-08-05T14:43:59.480Z,21.60
2022-08-05T14:46:22.465Z,21.60
2022-08-05T14:48:56.147Z,21.50
2022-08-05T14:51:24.847Z,21.50
2022-08-05T14:54:26.319Z,21.60
2022-08-05T14:56:46.843Z,21.60
2022-08-05T14:59:14.831Z,21.80
2022-08-05T15:01:47.879Z,22.00
2022-08-05T15:04:15.966Z,22.10
2022-08-05T15:06:49.453Z,22.40
2022-08-05T15:09:52.533Z,22.60
2022-08-05T15:12:06.920Z,22.80
2022-08-05T15:14:43.104Z,23.10
2022-08-05T15:17:45.121Z,23.30
2022-08-05T15:20:05.555Z,23.60
2022-08-05T15:22:33.078Z,23.80
2022-08-05T15:25:00.734Z,24.00
2022-08-05T15:27:42.878Z,24.20
2022-08-05T15:30:19.008Z,24.40
2022-08-05T15:32:46.902Z,24.60
2022-08-05T15:35:14.896Z,24.80
2022-08-05T15:38:08.438Z,24.90
2022-08-05T15:41:00.018Z,25.10
2022-08-05T15:43:20.374Z,25.20
2022-08-05T15:46:00.592Z,25.40
2022-08-05T15:48:28.665Z,25.50
2022-08-05T15:50:56.333Z,25.70
2022-08-05T15:53:26.581Z,25.80
2022-08-05T15:56:03.898Z,25.90
2022-08-05T15:58:36.838Z,26.10
2022-08-05T16:01:16.433Z,26.30
2022-08-05T16:03:48.363Z,26.40
2022-08-05T16:06:20.306Z,26.60
2022-08-05T16:08:50.930Z,26.80
2022-08-05T16:11:39.773Z,26.90
2022-08-05T16:14:07.936Z,27.00
2022-08-05T16:16:36.693Z,27.10
2022-08-05T16:19:04.565Z,27.20
2022-08-05T16:22:00.160Z,27.30
2022-08-05T16:24:39.778Z,27.40
2022-08-05T16:27:07.520Z,27.50
2022-08-05T16:29:37.419Z,27.70
2022-08-05T16:32:09.569Z,27.80
2022-08-05T16:34:37.065Z,27.90
2022-08-05T16:38:02.635Z,28.00
2022-08-05T16:40:05.831Z,28.10
2022-08-05T16:42:34.508Z,28.20
2022-08-05T16:45:05.984Z,28.30
2022-08-05T16:47:54.429Z,28.30
2022-08-05T16:50:24.613Z,28.40
2022-08-05T16:52:51.734Z,28.50
2022-08-05T16:55:20.450Z,28.50
2022-08-05T16:57:53.689Z,28.60
2022-08-05T17:00:34.494Z,28.70
2022-08-05T17:03:09.239Z,28.70
2022-08-05T17:05:50.241Z,28.80
2022-08-05T17:08:36.516Z,28.90
2022-08-05T17:11:16.491Z,29.00
2022-08-05T17:13:45.170Z,29.10
2022-08-05T17:16:32.923Z,29.10
2022-08-05T17:19:00.451Z,29.10
2022-08-05T17:21:36.165Z,29.20
2022-08-05T17:24:19.810Z,29.20
2022-08-05T17:26:57.032Z,29.30
2022-08-05T17:29:33.869Z,29.30
2022-08-05T17:32:17.086Z,29.20
2022-08-05T17:34:48.065Z,29.30
2022-08-05T17:37:40.743Z,29.30
2022-08-05T17:40:12.856Z,29.30
2022-08-05T17:42:46.610Z,29.20
2022-08-05T17:45:22.165Z,29.20
2022-08-05T17:47:55.041Z,29.20
2022-08-05T17:50:28.621Z,29.10
2022-08-05T17:52:59.746Z,29.00
2022-08-05T17:55:38.511Z,29.00
2022-08-05T17:58:09.608Z,29.00
2022-08-05T18:00:40.886Z,28.90
2022-08-05T18:03:12.172Z,28.90
2022-08-05T18:05:55.583Z,28.90
2022-08-05T18:08:28.806Z,28.90
2022-08-05T18:10:57.489Z,28.90
2022-08-05T18:13:25.843Z,28.80
2022-08-05T18:15:53.195Z,28.80
2022-08-05T18:18:21.776Z,28.80
2022-08-05T18:20:53.559Z,28.70
2022-08-05T18:23:22.261Z,28.70
2022-08-05T18:25:57.471Z,28.70
2022-08-05T18:28:28.480Z,28.70
2022-08-05T18:30:55.853Z,28.60
2022-08-05T18:33:24.213Z,28.60
2022-08-05T18:36:04.209Z,28.60
2022-08-05T18:38:36.109Z,28.50
2022-08-05T18:41:56.809Z,28.50
2022-08-05T18:43:52.147Z,28.50
2022-08-05T18:46:19.854Z,28.40
2022-08-05T18:48:51.819Z,28.40
2022-08-05T18:52:04.971Z,28.40
2022-08-05T18:54:31.847Z,28.40
2022-08-05T18:57:01.325Z,28.30
2022-08-05T18:59:43.059Z,28.30
2022-08-05T19:02:38.073Z,28.30
2022-08-05T19:06:05.840Z,28.30
2022-08-05T19:07:55.368Z,28.30
2022-08-05T19:10:28.542Z,28.20
2022-08-05T19:12:56.842Z,28.20
2022-08-05T19:15:58.199Z,28.20
2022-08-05T19:18:20.799Z,28.20
2022-08-05T19:20:52.409Z,28.20
2022-08-05T19:24:04.480Z,28.10
2022-08-05T19:26:08.402Z,28.10
2022-08-05T19:28:42.058Z,28.10
2022-08-05T19:31:13.474Z,28.10
2022-08-05T19:33:48.585Z,28.10
2022-08-05T19:36:25.607Z,28.10
2022-08-05T19:38:55.334Z,28.10
2022-08-05T19:42:06.351Z,28.10
2022-08-05T19:44:16.638Z,28.10
2022-08-05T19:46:43.985Z,28.10
2022-08-05T19:49:12.511Z,28.10
2022-08-05T19:52:05.760Z,28.00
2022-08-05T19:54:34.557Z,28.10
2022-08-05T19:57:06.693Z,28.00
2022-08-05T19:59:55.109Z,28.00
2022-08-05T20:02:26.042Z,28.00
2022-08-05T20:04:55.597Z,28.00
2022-08-05T20:07:45.775Z,28.00
2022-08-05T20:10:15.689Z,28.00
2022-08-05T20:12:46.449Z,28.00
2022-08-05T20:15:48.011Z,28.00
2022-08-05T20:18:10.769Z,27.90
2022-08-05T20:20:55.115Z,27.90
2022-08-05T20:23:22.736Z,27.90
2022-08-05T20:25:52.341Z,27.90
2022-08-05T20:28:21.041Z,27.90
2022-08-05T20:30:49.553Z,27.90
2022-08-05T20:33:16.921Z,27.90
2022-08-05T20:35:45.703Z,27.90
2022-08-05T20:38:19.996Z,27.80
2022-08-05T20:40:50.531Z,27.80
2022-08-05T20:43:57.909Z,27.80
2022-08-05T20:46:06.946Z,27.80
2022-08-05T20:48:36.581Z,27.80
2022-08-05T20:51:08.089Z,27.80
2022-08-05T20:53:37.058Z,27.80
2022-08-05T20:56:09.693Z,27.80
2022-08-05T20:58:37.242Z,27.80
2022-08-05T21:01:05.185Z,27.80
2022-08-05T21:03:34.558Z,27.80
2022-08-05T21:06:02.624Z,27.80
2022-08-05T21:08:42.450Z,27.80
2022-08-05T21:11:12.680Z,27.80
2022-08-05T21:13:56.137Z,27.70
2022-08-05T21:16:29.595Z,27.70
2022-08-05T21:18:59.961Z,27.70
2022-08-05T21:21:44.617Z,27.70
2022-08-05T21:24:19.744Z,27.70
2022-08-05T21:26:57.882Z,27.70
2022-08-05T21:29:31.836Z,27.70
2022-08-05T21:32:00.813Z,27.70
2022-08-05T21:34:28.405Z,27.60
2022-08-05T21:36:59.070Z,27.60
2022-08-05T21:39:28.059Z,27.60
2022-08-05T21:42:01.260Z,27.60
2022-08-05T21:44:30.155Z,27.60
2022-08-05T21:46:58.797Z,27.60
2022-08-05T21:49:59.397Z,27.60
2022-08-05T21:52:22.155Z,27.60
2022-08-05T21:54:55.098Z,27.50
2022-08-05T21:57:31.406Z,27.50
2022-08-05T22:00:06.180Z,27.60
2022-08-05T22:02:34.524Z,27.50
2022-08-05T22:05:01.789Z,27.50
2022-08-05T22:07:39.910Z,27.50
2022-08-05T22:10:25.526Z,27.50
2022-08-05T22:12:57.427Z,27.50
2022-08-05T22:16:01.498Z,27.50
2022-08-05T22:18:13.241Z,27.40
2022-08-05T22:20:42.901Z,27.50
2022-08-05T22:24:02.299Z,27.40
2022-08-05T22:26:38.683Z,27.40
2022-08-05T22:29:06.956Z,27.40
2022-08-05T22:31:44.363Z,27.40
2022-08-05T22:34:20.212Z,27.40
2022-08-05T22:36:58.542Z,27.30
2022-08-05T22:39:32.976Z,27.30
2022-08-05T22:42:10.075Z,27.30
2022-08-05T22:44:39.178Z,27.30
2022-08-05T22:47:06.681Z,27.30
2022-08-05T22:50:20.195Z,27.30
2022-08-05T22:52:30.121Z,27.30
2022-08-05T22:55:01.326Z,27.20
2022-08-05T22:57:34.115Z,27.20
2022-08-05T23:00:07.844Z,27.20
2022-08-05T23:02:40.157Z,27.20
2022-08-05T23:05:15.821Z,27.20
2022-08-05T23:07:45.234Z,27.20
2022-08-05T23:10:19.960Z,27.20
2022-08-05T23:12:51.542Z,27.20
2022-08-05T23:15:21.708Z,27.20
2022-08-05T23:18:01.134Z,27.20
2022-08-05T23:20:32.085Z,27.20
2022-08-05T23:23:00.256Z,27.20
2022-08-05T23:25:51.861Z,27.20
2022-08-05T23:28:18.422Z,27.20
2022-08-05T23:30:53.322Z,27.10
2022-08-05T23:33:22.205Z,27.10
2022-08-05T23:35:56.041Z,27.20
2022-08-05T23:38:26.708Z,27.10
2022-08-05T23:40:54.193Z,27.10
2022-08-05T23:43:25.554Z,27.10
2022-08-05T23:46:20.666Z,27.10
2022-08-05T23:48:59.268Z,27.10
2022-08-05T23:51:55.904Z,27.10
2022-08-05T23:54:38.160Z,27.10
2022-08-05T23:57:06.808Z,27.10
